sensor_id;sensor_type;location;lat;lon;timestamp;P1;durP1;ratioP1;P2;durP2;ratioP2
69203;SDS011;56317;27.658;85.326;2023-07-22T00:01:10;30.27;;;16.60;;
69203;SDS011;56317;27.658;85.326;2023-07-22T00:03:37;26.90;;;15.77;;
69203;SDS011;56317;27.658;85.326;2023-07-22T00:06:08;26.88;;;16.42;;
69203;SDS011;56317;27.658;85.326;2023-07-22T00:08:36;29.50;;;15.35;;
69203;SDS011;56317;27.658;85.326;2023-07-22T00:11:04;33.97;;;15.98;;
69203;SDS011;56317;27.658;85.326;2023-07-22T00:13:32;27.17;;;14.60;;
69203;SDS011;56317;27.658;85.326;2023-07-22T00:16:00;28.95;;;14.98;;
69203;SDS011;56317;27.658;85.326;2023-07-22T00:18:30;32.57;;;15.80;;
69203;SDS011;56317;27.658;85.326;2023-07-22T00:20:58;28.70;;;15.05;;
69203;SDS011;56317;27.658;85.326;2023-07-22T00:23:25;23.75;;;13.85;;
69203;SDS011;56317;27.658;85.326;2023-07-22T00:25:52;27.80;;;14.02;;
69203;SDS011;56317;27.658;85.326;2023-07-22T00:28:19;26.00;;;14.75;;
69203;SDS011;56317;27.658;85.326;2023-07-22T00:30:46;22.45;;;13.65;;
69203;SDS011;56317;27.658;85.326;2023-07-22T00:33:14;25.63;;;14.77;;
69203;SDS011;56317;27.658;85.326;2023-07-22T00:35:42;28.10;;;13.70;;
69203;SDS011;56317;27.658;85.326;2023-07-22T00:38:13;27.63;;;13.32;;
69203;SDS011;56317;27.658;85.326;2023-07-22T00:40:41;28.48;;;13.85;;
69203;SDS011;56317;27.658;85.326;2023-07-22T00:43:09;35.20;;;14.20;;
69203;SDS011;56317;27.658;85.326;2023-07-22T00:45:36;31.98;;;14.45;;
69203;SDS011;56317;27.658;85.326;2023-07-22T00:48:05;28.58;;;13.80;;
69203;SDS011;56317;27.658;85.326;2023-07-22T00:50:33;25.23;;;15.60;;
69203;SDS011;56317;27.658;85.326;2023-07-22T00:53:00;28.92;;;16.08;;
69203;SDS011;56317;27.658;85.326;2023-07-22T00:55:27;28.70;;;16.70;;
69203;SDS011;56317;27.658;85.326;2023-07-22T00:57:55;25.48;;;16.65;;
69203;SDS011;56317;27.658;85.326;2023-07-22T01:00:22;33.33;;;16.10;;
69203;SDS011;56317;27.658;85.326;2023-07-22T01:02:49;29.63;;;17.15;;
69203;SDS011;56317;27.658;85.326;2023-07-22T01:05:16;28.65;;;17.85;;
69203;SDS011;56317;27.658;85.326;2023-07-22T01:07:43;30.65;;;18.13;;
69203;SDS011;56317;27.658;85.326;2023-07-22T01:10:12;37.28;;;19.48;;
69203;SDS011;56317;27.658;85.326;2023-07-22T01:12:40;31.27;;;18.08;;
69203;SDS011;56317;27.658;85.326;2023-07-22T01:15:07;30.10;;;16.92;;
69203;SDS011;56317;27.658;85.326;2023-07-22T01:17:36;26.98;;;16.67;;
69203;SDS011;56317;27.658;85.326;2023-07-22T01:20:04;27.30;;;16.58;;
69203;SDS011;56317;27.658;85.326;2023-07-22T01:22:33;26.00;;;17.17;;
69203;SDS011;56317;27.658;85.326;2023-07-22T01:25:00;29.58;;;17.83;;
69203;SDS011;56317;27.658;85.326;2023-07-22T01:27:27;36.75;;;19.33;;
69203;SDS011;56317;27.658;85.326;2023-07-22T01:29:55;36.13;;;20.10;;
69203;SDS011;56317;27.658;85.326;2023-07-22T01:32:22;32.67;;;19.70;;
69203;SDS011;56317;27.658;85.326;2023-07-22T01:34:49;25.17;;;16.20;;
69203;SDS011;56317;27.658;85.326;2023-07-22T01:37:16;32.20;;;16.35;;
69203;SDS011;56317;27.658;85.326;2023-07-22T01:39:43;27.27;;;16.70;;
69203;SDS011;56317;27.658;85.326;2023-07-22T01:42:10;22.30;;;15.40;;
69203;SDS011;56317;27.658;85.326;2023-07-22T01:44:39;21.95;;;14.35;;
69203;SDS011;56317;27.658;85.326;2023-07-22T01:47:06;24.30;;;15.10;;
69203;SDS011;56317;27.658;85.326;2023-07-22T01:49:33;26.45;;;16.88;;
69203;SDS011;56317;27.658;85.326;2023-07-22T01:52:01;31.83;;;17.23;;
69203;SDS011;56317;27.658;85.326;2023-07-22T01:54:28;33.90;;;17.48;;
69203;SDS011;56317;27.658;85.326;2023-07-22T01:56:55;26.75;;;16.17;;
69203;SDS011;56317;27.658;85.326;2023-07-22T01:59:22;32.95;;;17.92;;
69203;SDS011;56317;27.658;85.326;2023-07-22T02:01:49;32.25;;;18.67;;
69203;SDS011;56317;27.658;85.326;2023-07-22T02:04:17;39.80;;;16.98;;
69203;SDS011;56317;27.658;85.326;2023-07-22T02:06:44;22.25;;;14.85;;
69203;SDS011;56317;27.658;85.326;2023-07-22T02:09:12;34.67;;;18.60;;
69203;SDS011;56317;27.658;85.326;2023-07-22T02:11:39;27.25;;;16.10;;
69203;SDS011;56317;27.658;85.326;2023-07-22T02:14:06;28.27;;;16.23;;
69203;SDS011;56317;27.658;85.326;2023-07-22T02:16:34;27.92;;;15.52;;
69203;SDS011;56317;27.658;85.326;2023-07-22T02:21:31;21.23;;;13.75;;
69203;SDS011;56317;27.658;85.326;2023-07-22T02:23:58;23.40;;;15.15;;
69203;SDS011;56317;27.658;85.326;2023-07-22T02:26:25;26.02;;;15.50;;
69203;SDS011;56317;27.658;85.326;2023-07-22T02:28:53;21.15;;;15.35;;
69203;SDS011;56317;27.658;85.326;2023-07-22T02:31:20;21.98;;;15.30;;
69203;SDS011;56317;27.658;85.326;2023-07-22T02:33:48;21.77;;;14.85;;
69203;SDS011;56317;27.658;85.326;2023-07-22T02:36:15;25.02;;;15.60;;
69203;SDS011;56317;27.658;85.326;2023-07-22T02:38:43;23.95;;;16.00;;
69203;SDS011;56317;27.658;85.326;2023-07-22T02:41:10;26.67;;;16.73;;
69203;SDS011;56317;27.658;85.326;2023-07-22T02:43:37;23.52;;;14.98;;
69203;SDS011;56317;27.658;85.326;2023-07-22T02:46:05;21.88;;;14.88;;
69203;SDS011;56317;27.658;85.326;2023-07-22T02:48:33;25.83;;;16.25;;
69203;SDS011;56317;27.658;85.326;2023-07-22T02:51:04;34.55;;;16.73;;
69203;SDS011;56317;27.658;85.326;2023-07-22T02:53:33;27.10;;;17.55;;
69203;SDS011;56317;27.658;85.326;2023-07-22T02:56:03;25.77;;;17.08;;
69203;SDS011;56317;27.658;85.326;2023-07-22T02:58:34;26.08;;;14.75;;
69203;SDS011;56317;27.658;85.326;2023-07-22T03:01:03;24.98;;;15.27;;
69203;SDS011;56317;27.658;85.326;2023-07-22T03:03:30;25.10;;;15.38;;
69203;SDS011;56317;27.658;85.326;2023-07-22T03:05:59;21.23;;;14.05;;
69203;SDS011;56317;27.658;85.326;2023-07-22T03:08:27;30.83;;;16.48;;
69203;SDS011;56317;27.658;85.326;2023-07-22T03:10:54;21.75;;;15.27;;
69203;SDS011;56317;27.658;85.326;2023-07-22T03:13:21;23.48;;;14.75;;
69203;SDS011;56317;27.658;85.326;2023-07-22T03:15:48;22.33;;;14.43;;
69203;SDS011;56317;27.658;85.326;2023-07-22T03:18:16;28.63;;;17.33;;
69203;SDS011;56317;27.658;85.326;2023-07-22T03:20:43;22.52;;;15.77;;
69203;SDS011;56317;27.658;85.326;2023-07-22T03:23:10;25.00;;;16.92;;
69203;SDS011;56317;27.658;85.326;2023-07-22T03:25:37;22.52;;;16.23;;
69203;SDS011;56317;27.658;85.326;2023-07-22T03:28:05;22.27;;;16.25;;
69203;SDS011;56317;27.658;85.326;2023-07-22T03:30:33;25.30;;;16.30;;
69203;SDS011;56317;27.658;85.326;2023-07-22T03:33:00;26.73;;;17.58;;
69203;SDS011;56317;27.658;85.326;2023-07-22T03:35:27;22.63;;;15.90;;
69203;SDS011;56317;27.658;85.326;2023-07-22T03:37:55;25.42;;;16.27;;
69203;SDS011;56317;27.658;85.326;2023-07-22T03:40:22;22.05;;;15.88;;
69203;SDS011;56317;27.658;85.326;2023-07-22T03:42:54;21.40;;;15.80;;
69203;SDS011;56317;27.658;85.326;2023-07-22T03:45:22;19.75;;;15.40;;
69203;SDS011;56317;27.658;85.326;2023-07-22T03:47:53;25.95;;;15.88;;
69203;SDS011;56317;27.658;85.326;2023-07-22T03:50:24;26.88;;;16.58;;
69203;SDS011;56317;27.658;85.326;2023-07-22T03:52:51;23.00;;;17.42;;
69203;SDS011;56317;27.658;85.326;2023-07-22T03:55:19;20.90;;;16.50;;
69203;SDS011;56317;27.658;85.326;2023-07-22T03:57:46;30.13;;;18.15;;
69203;SDS011;56317;27.658;85.326;2023-07-22T04:00:13;22.73;;;17.00;;
69203;SDS011;56317;27.658;85.326;2023-07-22T04:02:40;24.60;;;15.93;;
69203;SDS011;56317;27.658;85.326;2023-07-22T04:05:08;25.88;;;15.77;;
69203;SDS011;56317;27.658;85.326;2023-07-22T04:07:36;24.88;;;15.38;;
69203;SDS011;56317;27.658;85.326;2023-07-22T04:10:03;19.92;;;14.68;;
69203;SDS011;56317;27.658;85.326;2023-07-22T04:12:31;19.52;;;14.10;;
69203;SDS011;56317;27.658;85.326;2023-07-22T04:14:58;20.40;;;13.43;;
69203;SDS011;56317;27.658;85.326;2023-07-22T04:17:25;18.35;;;13.02;;
69203;SDS011;56317;27.658;85.326;2023-07-22T04:19:52;19.02;;;12.32;;
69203;SDS011;56317;27.658;85.326;2023-07-22T04:22:22;20.98;;;13.38;;
69203;SDS011;56317;27.658;85.326;2023-07-22T04:24:49;17.97;;;12.83;;
69203;SDS011;56317;27.658;85.326;2023-07-22T04:27:16;23.15;;;14.10;;
69203;SDS011;56317;27.658;85.326;2023-07-22T04:29:43;23.85;;;13.32;;
69203;SDS011;56317;27.658;85.326;2023-07-22T04:32:11;16.00;;;11.80;;
69203;SDS011;56317;27.658;85.326;2023-07-22T04:34:38;19.33;;;10.93;;
69203;SDS011;56317;27.658;85.326;2023-07-22T04:37:05;16.20;;;11.68;;
69203;SDS011;56317;27.658;85.326;2023-07-22T04:39:32;18.42;;;12.02;;
69203;SDS011;56317;27.658;85.326;2023-07-22T04:41:59;15.20;;;11.77;;
69203;SDS011;56317;27.658;85.326;2023-07-22T04:44:27;15.82;;;12.50;;
69203;SDS011;56317;27.658;85.326;2023-07-22T04:46:54;18.45;;;11.77;;
69203;SDS011;56317;27.658;85.326;2023-07-22T04:49:21;15.55;;;11.00;;
69203;SDS011;56317;27.658;85.326;2023-07-22T04:51:48;15.38;;;9.95;;
69203;SDS011;56317;27.658;85.326;2023-07-22T04:54:15;13.23;;;9.43;;
69203;SDS011;56317;27.658;85.326;2023-07-22T04:56:46;13.45;;;9.90;;
69203;SDS011;56317;27.658;85.326;2023-07-22T04:59:13;12.57;;;9.82;;
69203;SDS011;56317;27.658;85.326;2023-07-22T05:01:41;14.20;;;10.15;;
69203;SDS011;56317;27.658;85.326;2023-07-22T05:04:09;18.15;;;10.25;;
69203;SDS011;56317;27.658;85.326;2023-07-22T05:06:36;18.00;;;11.27;;
69203;SDS011;56317;27.658;85.326;2023-07-22T05:09:03;15.13;;;10.35;;
69203;SDS011;56317;27.658;85.326;2023-07-22T05:11:30;16.23;;;10.75;;
69203;SDS011;56317;27.658;85.326;2023-07-22T05:13:57;15.90;;;9.80;;
69203;SDS011;56317;27.658;85.326;2023-07-22T05:16:24;14.05;;;9.68;;
69203;SDS011;56317;27.658;85.326;2023-07-22T05:18:51;16.70;;;11.00;;
69203;SDS011;56317;27.658;85.326;2023-07-22T05:21:18;14.90;;;9.82;;
69203;SDS011;56317;27.658;85.326;2023-07-22T05:23:46;14.20;;;10.30;;
69203;SDS011;56317;27.658;85.326;2023-07-22T05:26:13;14.32;;;9.48;;
69203;SDS011;56317;27.658;85.326;2023-07-22T05:28:40;14.73;;;10.13;;
69203;SDS011;56317;27.658;85.326;2023-07-22T05:31:07;15.13;;;10.88;;
69203;SDS011;56317;27.658;85.326;2023-07-22T05:33:34;18.95;;;10.52;;
69203;SDS011;56317;27.658;85.326;2023-07-22T05:36:01;15.10;;;10.60;;
69203;SDS011;56317;27.658;85.326;2023-07-22T05:38:28;13.25;;;9.68;;
69203;SDS011;56317;27.658;85.326;2023-07-22T05:40:56;14.25;;;9.40;;
69203;SDS011;56317;27.658;85.326;2023-07-22T05:43:24;19.63;;;10.38;;
69203;SDS011;56317;27.658;85.326;2023-07-22T05:45:51;15.20;;;9.68;;
69203;SDS011;56317;27.658;85.326;2023-07-22T05:48:18;12.23;;;8.57;;
69203;SDS011;56317;27.658;85.326;2023-07-22T05:50:47;11.73;;;8.75;;
69203;SDS011;56317;27.658;85.326;2023-07-22T05:53:14;13.43;;;8.13;;
69203;SDS011;56317;27.658;85.326;2023-07-22T05:55:41;12.52;;;8.93;;
69203;SDS011;56317;27.658;85.326;2023-07-22T05:58:14;11.07;;;8.63;;
69203;SDS011;56317;27.658;85.326;2023-07-22T06:00:43;13.38;;;7.78;;
69203;SDS011;56317;27.658;85.326;2023-07-22T06:03:10;20.25;;;9.30;;
69203;SDS011;56317;27.658;85.326;2023-07-22T06:05:37;11.07;;;8.32;;
69203;SDS011;56317;27.658;85.326;2023-07-22T06:08:04;13.50;;;7.90;;
69203;SDS011;56317;27.658;85.326;2023-07-22T06:10:32;16.60;;;8.55;;
69203;SDS011;56317;27.658;85.326;2023-07-22T06:13:00;8.60;;;6.53;;
69203;SDS011;56317;27.658;85.326;2023-07-22T06:15:27;10.23;;;6.75;;
69203;SDS011;56317;27.658;85.326;2023-07-22T06:17:54;17.98;;;7.50;;
69203;SDS011;56317;27.658;85.326;2023-07-22T06:20:21;10.52;;;6.93;;
69203;SDS011;56317;27.658;85.326;2023-07-22T06:22:48;10.45;;;6.30;;
69203;SDS011;56317;27.658;85.326;2023-07-22T06:25:16;10.30;;;6.88;;
69203;SDS011;56317;27.658;85.326;2023-07-22T06:27:43;12.80;;;7.60;;
69203;SDS011;56317;27.658;85.326;2023-07-22T06:30:10;11.35;;;7.75;;
69203;SDS011;56317;27.658;85.326;2023-07-22T06:32:38;12.40;;;6.88;;
69203;SDS011;56317;27.658;85.326;2023-07-22T06:35:05;22.35;;;6.57;;
69203;SDS011;56317;27.658;85.326;2023-07-22T06:37:33;10.18;;;6.35;;
69203;SDS011;56317;27.658;85.326;2023-07-22T06:40:00;13.70;;;6.70;;
69203;SDS011;56317;27.658;85.326;2023-07-22T06:42:28;7.50;;;5.40;;
69203;SDS011;56317;27.658;85.326;2023-07-22T06:44:55;8.45;;;4.93;;
69203;SDS011;56317;27.658;85.326;2023-07-22T06:47:22;9.13;;;5.25;;
69203;SDS011;56317;27.658;85.326;2023-07-22T06:49:49;9.85;;;4.80;;
69203;SDS011;56317;27.658;85.326;2023-07-22T06:52:16;9.80;;;4.35;;
69203;SDS011;56317;27.658;85.326;2023-07-22T06:54:43;9.75;;;4.75;;
69203;SDS011;56317;27.658;85.326;2023-07-22T06:57:11;10.80;;;4.60;;
69203;SDS011;56317;27.658;85.326;2023-07-22T06:59:38;14.55;;;4.32;;
69203;SDS011;56317;27.658;85.326;2023-07-22T07:02:05;6.95;;;4.03;;
69203;SDS011;56317;27.658;85.326;2023-07-22T07:04:33;9.20;;;3.72;;
69203;SDS011;56317;27.658;85.326;2023-07-22T07:07:00;7.55;;;3.83;;
69203;SDS011;56317;27.658;85.326;2023-07-22T07:09:28;19.58;;;5.65;;
69203;SDS011;56317;27.658;85.326;2023-07-22T07:11:55;6.60;;;3.75;;
69203;SDS011;56317;27.658;85.326;2023-07-22T07:14:23;6.15;;;3.42;;
69203;SDS011;56317;27.658;85.326;2023-07-22T07:16:53;6.40;;;3.30;;
69203;SDS011;56317;27.658;85.326;2023-07-22T07:19:20;6.10;;;3.20;;
69203;SDS011;56317;27.658;85.326;2023-07-22T07:21:47;4.57;;;2.90;;
69203;SDS011;56317;27.658;85.326;2023-07-22T07:24:15;5.65;;;2.78;;
69203;SDS011;56317;27.658;85.326;2023-07-22T07:26:43;5.25;;;2.85;;
69203;SDS011;56317;27.658;85.326;2023-07-22T07:29:10;6.20;;;3.17;;
69203;SDS011;56317;27.658;85.326;2023-07-22T07:31:38;6.38;;;2.92;;
69203;SDS011;56317;27.658;85.326;2023-07-22T07:34:05;5.40;;;2.78;;
69203;SDS011;56317;27.658;85.326;2023-07-22T07:36:33;5.13;;;2.40;;
69203;SDS011;56317;27.658;85.326;2023-07-22T07:39:00;5.78;;;2.45;;
69203;SDS011;56317;27.658;85.326;2023-07-22T07:41:28;4.03;;;2.30;;
69203;SDS011;56317;27.658;85.326;2023-07-22T07:43:55;8.70;;;3.05;;
69203;SDS011;56317;27.658;85.326;2023-07-22T07:46:23;6.38;;;2.80;;
69203;SDS011;56317;27.658;85.326;2023-07-22T07:48:53;7.97;;;3.13;;
69203;SDS011;56317;27.658;85.326;2023-07-22T07:51:23;9.20;;;3.50;;
69203;SDS011;56317;27.658;85.326;2023-07-22T07:53:52;6.70;;;3.72;;
69203;SDS011;56317;27.658;85.326;2023-07-22T07:56:20;7.97;;;4.30;;
69203;SDS011;56317;27.658;85.326;2023-07-22T07:58:48;7.82;;;3.78;;
69203;SDS011;56317;27.658;85.326;2023-07-22T08:01:16;9.55;;;4.13;;
69203;SDS011;56317;27.658;85.326;2023-07-22T08:03:43;10.02;;;4.70;;
69203;SDS011;56317;27.658;85.326;2023-07-22T08:06:11;9.52;;;4.68;;
69203;SDS011;56317;27.658;85.326;2023-07-22T08:08:39;7.28;;;3.80;;
69203;SDS011;56317;27.658;85.326;2023-07-22T08:11:07;7.03;;;3.95;;
69203;SDS011;56317;27.658;85.326;2023-07-22T08:13:42;10.82;;;3.58;;
69203;SDS011;56317;27.658;85.326;2023-07-22T08:16:11;6.85;;;4.03;;
69203;SDS011;56317;27.658;85.326;2023-07-22T08:18:39;8.10;;;3.50;;
69203;SDS011;56317;27.658;85.326;2023-07-22T08:21:06;8.43;;;3.28;;
69203;SDS011;56317;27.658;85.326;2023-07-22T08:23:34;5.53;;;3.35;;
69203;SDS011;56317;27.658;85.326;2023-07-22T08:26:02;12.00;;;3.97;;
69203;SDS011;56317;27.658;85.326;2023-07-22T08:28:33;6.00;;;3.28;;
69203;SDS011;56317;27.658;85.326;2023-07-22T08:31:02;6.07;;;3.00;;
69203;SDS011;56317;27.658;85.326;2023-07-22T08:33:29;7.72;;;3.10;;
69203;SDS011;56317;27.658;85.326;2023-07-22T08:35:57;7.13;;;3.00;;
69203;SDS011;56317;27.658;85.326;2023-07-22T08:38:24;4.60;;;3.03;;
69203;SDS011;56317;27.658;85.326;2023-07-22T08:40:51;4.38;;;2.38;;
69203;SDS011;56317;27.658;85.326;2023-07-22T08:43:21;5.05;;;3.03;;
69203;SDS011;56317;27.658;85.326;2023-07-22T08:45:49;7.75;;;2.58;;
69203;SDS011;56317;27.658;85.326;2023-07-22T08:48:18;5.65;;;2.20;;
69203;SDS011;56317;27.658;85.326;2023-07-22T08:50:53;13.77;;;2.97;;
69203;SDS011;56317;27.658;85.326;2023-07-22T08:53:25;4.90;;;2.60;;
69203;SDS011;56317;27.658;85.326;2023-07-22T08:55:53;5.28;;;2.58;;
69203;SDS011;56317;27.658;85.326;2023-07-22T08:58:20;8.82;;;2.90;;
69203;SDS011;56317;27.658;85.326;2023-07-22T09:00:50;8.77;;;2.90;;
69203;SDS011;56317;27.658;85.326;2023-07-22T09:03:18;14.13;;;4.47;;
69203;SDS011;56317;27.658;85.326;2023-07-22T09:05:45;12.73;;;5.25;;
69203;SDS011;56317;27.658;85.326;2023-07-22T09:08:13;7.53;;;3.50;;
69203;SDS011;56317;27.658;85.326;2023-07-22T09:10:43;5.32;;;3.10;;
69203;SDS011;56317;27.658;85.326;2023-07-22T09:13:11;11.32;;;2.97;;
69203;SDS011;56317;27.658;85.326;2023-07-22T09:15:41;9.80;;;3.92;;
69203;SDS011;56317;27.658;85.326;2023-07-22T09:18:09;12.23;;;3.90;;
69203;SDS011;56317;27.658;85.326;2023-07-22T09:20:36;9.73;;;3.13;;
69203;SDS011;56317;27.658;85.326;2023-07-22T09:23:03;10.40;;;3.90;;
69203;SDS011;56317;27.658;85.326;2023-07-22T09:25:31;7.63;;;3.15;;
69203;SDS011;56317;27.658;85.326;2023-07-22T09:27:59;9.27;;;3.22;;
69203;SDS011;56317;27.658;85.326;2023-07-22T09:30:27;8.73;;;3.00;;
69203;SDS011;56317;27.658;85.326;2023-07-22T09:33:05;6.35;;;3.05;;
69203;SDS011;56317;27.658;85.326;2023-07-22T09:35:46;5.72;;;2.65;;
69203;SDS011;56317;27.658;85.326;2023-07-22T09:38:15;3.53;;;2.20;;
69203;SDS011;56317;27.658;85.326;2023-07-22T09:40:52;9.65;;;2.60;;
69203;SDS011;56317;27.658;85.326;2023-07-22T09:43:19;4.22;;;2.00;;
69203;SDS011;56317;27.658;85.326;2023-07-22T09:45:49;6.27;;;2.37;;
69203;SDS011;56317;27.658;85.326;2023-07-22T09:48:16;6.97;;;2.10;;
69203;SDS011;56317;27.658;85.326;2023-07-22T09:50:43;7.60;;;1.95;;
69203;SDS011;56317;27.658;85.326;2023-07-22T09:53:10;3.47;;;1.90;;
69203;SDS011;56317;27.658;85.326;2023-07-22T09:55:41;6.63;;;2.28;;
69203;SDS011;56317;27.658;85.326;2023-07-22T09:58:09;11.10;;;2.67;;
69203;SDS011;56317;27.658;85.326;2023-07-22T10:03:09;5.82;;;2.25;;
69203;SDS011;56317;27.658;85.326;2023-07-22T10:05:38;7.35;;;4.32;;
69203;SDS011;56317;27.658;85.326;2023-07-22T10:08:07;5.80;;;2.53;;
69203;SDS011;56317;27.658;85.326;2023-07-22T10:10:39;5.60;;;2.55;;
69203;SDS011;56317;27.658;85.326;2023-07-22T10:13:08;11.73;;;2.90;;
69203;SDS011;56317;27.658;85.326;2023-07-22T10:15:36;4.88;;;2.33;;
69203;SDS011;56317;27.658;85.326;2023-07-22T10:18:04;8.10;;;3.13;;
69203;SDS011;56317;27.658;85.326;2023-07-22T10:20:31;9.52;;;3.20;;
69203;SDS011;56317;27.658;85.326;2023-07-22T10:23:02;6.57;;;2.65;;
69203;SDS011;56317;27.658;85.326;2023-07-22T10:25:29;18.63;;;3.60;;
69203;SDS011;56317;27.658;85.326;2023-07-22T10:27:56;11.10;;;3.42;;
69203;SDS011;56317;27.658;85.326;2023-07-22T10:30:24;8.20;;;3.80;;
69203;SDS011;56317;27.658;85.326;2023-07-22T10:32:51;7.65;;;3.47;;
69203;SDS011;56317;27.658;85.326;2023-07-22T10:38:08;7.00;;;3.22;;
69203;SDS011;56317;27.658;85.326;2023-07-22T10:40:46;6.88;;;2.67;;
69203;SDS011;56317;27.658;85.326;2023-07-22T10:43:16;5.45;;;2.90;;
69203;SDS011;56317;27.658;85.326;2023-07-22T10:45:50;5.53;;;2.83;;
69203;SDS011;56317;27.658;85.326;2023-07-22T10:48:18;7.70;;;3.80;;
69203;SDS011;56317;27.658;85.326;2023-07-22T11:17:31;8.65;;;3.03;;
69203;SDS011;56317;27.658;85.326;2023-07-22T11:19:59;20.30;;;3.22;;
69203;SDS011;56317;27.658;85.326;2023-07-22T11:22:27;8.50;;;2.67;;
69203;SDS011;56317;27.658;85.326;2023-07-22T11:24:57;7.78;;;2.70;;
69203;SDS011;56317;27.658;85.326;2023-07-22T11:27:25;13.98;;;3.20;;
69203;SDS011;56317;27.658;85.326;2023-07-22T11:29:52;8.40;;;2.97;;
69203;SDS011;56317;27.658;85.326;2023-07-22T11:32:23;9.05;;;3.17;;
69203;SDS011;56317;27.658;85.326;2023-07-22T11:34:53;8.70;;;2.55;;
69203;SDS011;56317;27.658;85.326;2023-07-22T11:37:21;6.22;;;2.55;;
69203;SDS011;56317;27.658;85.326;2023-07-22T11:39:48;10.60;;;3.90;;
69203;SDS011;56317;27.658;85.326;2023-07-22T11:42:15;11.90;;;4.10;;
69203;SDS011;56317;27.658;85.326;2023-07-22T11:44:42;9.32;;;3.95;;
69203;SDS011;56317;27.658;85.326;2023-07-22T11:47:10;7.78;;;3.70;;
69203;SDS011;56317;27.658;85.326;2023-07-22T11:49:41;7.18;;;3.33;;
69203;SDS011;56317;27.658;85.326;2023-07-22T11:52:16;10.00;;;3.55;;
69203;SDS011;56317;27.658;85.326;2023-07-22T11:54:44;8.68;;;3.85;;
69203;SDS011;56317;27.658;85.326;2023-07-22T11:57:13;8.95;;;2.95;;
69203;SDS011;56317;27.658;85.326;2023-07-22T12:02:17;13.30;;;3.90;;
69203;SDS011;56317;27.658;85.326;2023-07-22T12:05:01;8.38;;;4.45;;
69203;SDS011;56317;27.658;85.326;2023-07-22T12:07:31;12.63;;;4.93;;
69203;SDS011;56317;27.658;85.326;2023-07-22T12:10:00;8.18;;;4.68;;
69203;SDS011;56317;27.658;85.326;2023-07-22T12:15:04;11.98;;;5.18;;
69203;SDS011;56317;27.658;85.326;2023-07-22T12:22:41;13.00;;;5.15;;
69203;SDS011;56317;27.658;85.326;2023-07-22T12:25:09;14.00;;;5.63;;
69203;SDS011;56317;27.658;85.326;2023-07-22T12:27:36;13.20;;;5.05;;
69203;SDS011;56317;27.658;85.326;2023-07-22T12:30:05;18.00;;;4.90;;
69203;SDS011;56317;27.658;85.326;2023-07-22T12:32:33;10.82;;;3.95;;
69203;SDS011;56317;27.658;85.326;2023-07-22T12:35:00;8.50;;;4.45;;
69203;SDS011;56317;27.658;85.326;2023-07-22T12:37:29;9.20;;;4.63;;
69203;SDS011;56317;27.658;85.326;2023-07-22T12:39:56;9.65;;;5.30;;
69203;SDS011;56317;27.658;85.326;2023-07-22T12:42:23;11.73;;;6.10;;
69203;SDS011;56317;27.658;85.326;2023-07-22T12:44:50;11.95;;;6.35;;
69203;SDS011;56317;27.658;85.326;2023-07-22T12:47:18;13.55;;;6.57;;
69203;SDS011;56317;27.658;85.326;2023-07-22T12:49:45;12.45;;;6.45;;
69203;SDS011;56317;27.658;85.326;2023-07-22T12:52:12;13.27;;;7.05;;
69203;SDS011;56317;27.658;85.326;2023-07-22T12:54:39;9.77;;;6.47;;
69203;SDS011;56317;27.658;85.326;2023-07-22T12:57:07;13.65;;;9.25;;
69203;SDS011;56317;27.658;85.326;2023-07-22T12:59:34;13.38;;;8.15;;
69203;SDS011;56317;27.658;85.326;2023-07-22T13:02:01;10.98;;;6.40;;
69203;SDS011;56317;27.658;85.326;2023-07-22T13:04:28;9.25;;;6.47;;
69203;SDS011;56317;27.658;85.326;2023-07-22T13:06:55;11.00;;;6.45;;
69203;SDS011;56317;27.658;85.326;2023-07-22T13:09:23;10.07;;;6.15;;
69203;SDS011;56317;27.658;85.326;2023-07-22T13:11:50;9.63;;;5.60;;
69203;SDS011;56317;27.658;85.326;2023-07-22T13:14:17;9.93;;;5.55;;
69203;SDS011;56317;27.658;85.326;2023-07-22T13:16:44;10.05;;;5.40;;
69203;SDS011;56317;27.658;85.326;2023-07-22T13:19:11;12.43;;;5.65;;
69203;SDS011;56317;27.658;85.326;2023-07-22T13:21:38;10.68;;;6.55;;
69203;SDS011;56317;27.658;85.326;2023-07-22T13:24:06;12.70;;;7.55;;
69203;SDS011;56317;27.658;85.326;2023-07-22T13:26:34;14.90;;;8.00;;
69203;SDS011;56317;27.658;85.326;2023-07-22T13:29:01;12.98;;;8.27;;
69203;SDS011;56317;27.658;85.326;2023-07-22T13:31:28;12.18;;;7.50;;
69203;SDS011;56317;27.658;85.326;2023-07-22T13:33:55;11.10;;;7.50;;
69203;SDS011;56317;27.658;85.326;2023-07-22T13:36:22;13.48;;;7.72;;
69203;SDS011;56317;27.658;85.326;2023-07-22T13:38:49;12.90;;;7.82;;
69203;SDS011;56317;27.658;85.326;2023-07-22T13:41:16;10.68;;;6.45;;
69203;SDS011;56317;27.658;85.326;2023-07-22T13:43:45;11.55;;;6.88;;
69203;SDS011;56317;27.658;85.326;2023-07-22T13:46:12;12.35;;;7.85;;
69203;SDS011;56317;27.658;85.326;2023-07-22T13:48:39;13.73;;;8.70;;
69203;SDS011;56317;27.658;85.326;2023-07-22T13:51:06;13.13;;;7.85;;
69203;SDS011;56317;27.658;85.326;2023-07-22T13:53:34;13.80;;;8.10;;
69203;SDS011;56317;27.658;85.326;2023-07-22T13:56:01;15.35;;;8.27;;
69203;SDS011;56317;27.658;85.326;2023-07-22T13:58:28;13.40;;;8.65;;
69203;SDS011;56317;27.658;85.326;2023-07-22T14:00:55;14.70;;;8.70;;
69203;SDS011;56317;27.658;85.326;2023-07-22T14:03:22;13.23;;;8.63;;
69203;SDS011;56317;27.658;85.326;2023-07-22T14:05:50;13.15;;;8.02;;
69203;SDS011;56317;27.658;85.326;2023-07-22T14:08:17;13.07;;;8.40;;
69203;SDS011;56317;27.658;85.326;2023-07-22T14:10:44;14.80;;;8.43;;
69203;SDS011;56317;27.658;85.326;2023-07-22T14:13:11;15.05;;;8.52;;
69203;SDS011;56317;27.658;85.326;2023-07-22T14:15:38;15.30;;;9.40;;
69203;SDS011;56317;27.658;85.326;2023-07-22T14:18:07;16.52;;;8.45;;
69203;SDS011;56317;27.658;85.326;2023-07-22T14:20:34;12.50;;;8.77;;
69203;SDS011;56317;27.658;85.326;2023-07-22T14:23:01;15.55;;;9.07;;
69203;SDS011;56317;27.658;85.326;2023-07-22T14:25:30;14.52;;;8.93;;
69203;SDS011;56317;27.658;85.326;2023-07-22T14:27:57;12.95;;;9.35;;
69203;SDS011;56317;27.658;85.326;2023-07-22T14:30:24;15.18;;;10.18;;
69203;SDS011;56317;27.658;85.326;2023-07-22T14:32:51;16.13;;;10.88;;
69203;SDS011;56317;27.658;85.326;2023-07-22T14:35:18;16.20;;;10.57;;
69203;SDS011;56317;27.658;85.326;2023-07-22T14:37:45;17.15;;;9.98;;
69203;SDS011;56317;27.658;85.326;2023-07-22T14:40:13;15.80;;;9.65;;
69203;SDS011;56317;27.658;85.326;2023-07-22T14:42:40;15.38;;;9.57;;
69203;SDS011;56317;27.658;85.326;2023-07-22T14:45:07;13.88;;;9.07;;
69203;SDS011;56317;27.658;85.326;2023-07-22T14:47:34;13.23;;;8.68;;
69203;SDS011;56317;27.658;85.326;2023-07-22T14:50:02;14.27;;;9.02;;
69203;SDS011;56317;27.658;85.326;2023-07-22T14:52:29;14.85;;;8.38;;
69203;SDS011;56317;27.658;85.326;2023-07-22T14:54:56;15.90;;;8.82;;
69203;SDS011;56317;27.658;85.326;2023-07-22T14:57:23;13.48;;;8.82;;
69203;SDS011;56317;27.658;85.326;2023-07-22T14:59:55;20.88;;;9.52;;
69203;SDS011;56317;27.658;85.326;2023-07-22T15:02:22;13.90;;;9.43;;
69203;SDS011;56317;27.658;85.326;2023-07-22T15:04:49;17.88;;;10.38;;
69203;SDS011;56317;27.658;85.326;2023-07-22T15:07:16;13.85;;;9.55;;
69203;SDS011;56317;27.658;85.326;2023-07-22T15:09:43;14.00;;;9.65;;